createdAt,value
2022-10-25T00:00:16.290Z,57.5
2022-10-25T00:05:19.258Z,57.5
2022-10-25T00:10:22.224Z,57.5
2022-10-25T00:15:19.453Z,57.5
2022-10-25T00:20:19.248Z,57.5
2022-10-25T00:25:19.247Z,57.5
2022-10-25T00:30:19.232Z,57.5
2022-10-25T00:35:16.243Z,57.4
2022-10-25T00:40:16.319Z,57.4
2022-10-25T00:45:19.283Z,57.4
2022-10-25T00:50:19.481Z,57.4
2022-10-25T00:55:19.235Z,57.4
2022-10-25T01:00:19.260Z,57.3
2022-10-25T01:05:19.260Z,57.3
2022-10-25T01:10:16.284Z,57.3
2022-10-25T01:15:16.282Z,57.3
2022-10-25T01:20:16.303Z,57.2
2022-10-25T01:25:19.539Z,57.2
2022-10-25T01:30:16.558Z,57.2
2022-10-25T01:35:19.297Z,57.2
2022-10-25T01:40:19.257Z,57.2
2022-10-25T01:45:16.296Z,57.1
2022-10-25T01:50:16.390Z,57.1
2022-10-25T01:55:16.304Z,57.1
2022-10-25T02:00:19.506Z,57.1
2022-10-25T02:05:19.349Z,57.0
2022-10-25T02:10:19.315Z,57.0
2022-10-25T02:15:19.284Z,56.9
2022-10-25T02:20:19.328Z,56.9
2022-10-25T02:25:16.317Z,56.9
2022-10-25T02:30:16.347Z,56.9
2022-10-25T02:35:16.396Z,56.9
2022-10-25T02:40:19.287Z,56.9
2022-10-25T02:45:19.337Z,56.9
2022-10-25T02:50:19.277Z,56.9
2022-10-25T02:55:19.301Z,56.9
2022-10-25T03:00:19.365Z,56.9
2022-10-25T03:05:16.385Z,56.9
2022-10-25T03:10:16.423Z,56.8
2022-10-25T03:15:16.368Z,56.8
2022-10-25T03:20:19.353Z,56.9
2022-10-25T03:25:16.164Z,56.9
2022-10-25T03:30:21.356Z,56.8
2022-10-25T03:35:19.301Z,56.9
2022-10-25T03:40:19.577Z,56.9
2022-10-25T03:45:16.322Z,56.9
2022-10-25T03:50:16.389Z,56.9
2022-10-25T03:55:16.366Z,56.9
2022-10-25T04:00:15.638Z,56.9
2022-10-25T04:05:18.628Z,56.9
2022-10-25T04:10:18.614Z,56.9
2022-10-25T04:15:18.813Z,56.9
2022-10-25T04:20:18.567Z,56.9
2022-10-25T04:25:18.618Z,56.9
2022-10-25T04:30:15.640Z,57.2
2022-10-25T04:35:15.602Z,57.2
2022-10-25T04:40:15.687Z,57.2
2022-10-25T04:45:18.605Z,57.2
2022-10-25T04:50:18.837Z,57.2
2022-10-25T04:55:18.598Z,57.2
2022-10-25T05:00:18.610Z,57.2
2022-10-25T05:05:18.603Z,57.2
2022-10-25T05:10:15.702Z,57.2
2022-10-25T05:15:15.698Z,57.2
2022-10-25T05:20:15.692Z,57.2
2022-10-25T05:25:18.828Z,57.3
2022-10-25T05:30:18.642Z,57.2
2022-10-25T05:35:18.696Z,57.2
2022-10-25T05:40:18.614Z,57.2
2022-10-25T05:45:18.657Z,57.2
2022-10-25T05:50:15.697Z,57.2
2022-10-25T05:55:15.637Z,57.2
2022-10-25T06:00:15.783Z,57.3
2022-10-25T06:05:18.639Z,57.3
2022-10-25T06:10:18.636Z,57.3
2022-10-25T06:15:18.647Z,57.3
2022-10-25T06:20:18.642Z,57.3
2022-10-25T06:25:18.611Z,57.3
2022-10-25T06:30:18.751Z,57.3
2022-10-25T06:35:15.677Z,57.3
2022-10-25T06:40:15.722Z,57.3
2022-10-25T06:45:15.653Z,57.3
2022-10-25T06:50:18.701Z,57.3
2022-10-25T06:55:18.683Z,57.3
2022-10-25T07:00:18.669Z,57.3
2022-10-25T07:05:18.741Z,57.3
2022-10-25T07:10:18.671Z,57.3
2022-10-25T07:15:25.163Z,57.3
2022-10-25T07:20:15.689Z,57.3
2022-10-25T07:25:15.714Z,57.3
2022-10-25T07:30:18.678Z,57.3
2022-10-25T07:35:18.679Z,57.3
2022-10-25T07:40:18.898Z,57.3
2022-10-25T07:45:22.250Z,57.3
2022-10-25T07:50:18.645Z,57.3
2022-10-25T07:55:18.684Z,57.3
2022-10-25T08:00:15.725Z,57.3
2022-10-25T08:05:15.747Z,57.3
2022-10-25T08:10:18.721Z,57.4
2022-10-25T08:15:18.880Z,57.4
2022-10-25T08:20:18.690Z,57.4
2022-10-25T08:25:19.947Z,57.4
2022-10-25T08:30:18.709Z,57.4
2022-10-25T08:35:16.128Z,57.4
2022-10-25T08:40:15.777Z,57.4
2022-10-25T08:45:15.706Z,57.4
2022-10-25T08:50:18.969Z,57.4
2022-10-25T08:55:15.732Z,57.4
2022-10-25T09:00:18.761Z,57.4
2022-10-25T09:05:18.721Z,57.4
2022-10-25T09:10:18.863Z,57.4
2022-10-25T09:15:18.707Z,57.4
2022-10-25T09:20:18.773Z,57.4
2022-10-25T09:25:15.845Z,57.4
2022-10-25T09:30:18.741Z,57.4
2022-10-25T09:35:18.772Z,57.4
2022-10-25T09:40:18.748Z,57.3
2022-10-25T09:45:18.709Z,57.3
2022-10-25T09:50:18.772Z,57.4
2022-10-25T09:55:18.912Z,57.4
2022-10-25T10:00:18.725Z,57.3
2022-10-25T10:05:18.739Z,57.4
2022-10-25T10:10:15.782Z,57.3
2022-10-25T10:15:15.773Z,57.3
2022-10-25T10:20:15.960Z,57.4
2022-10-25T10:25:15.793Z,57.4
2022-10-25T10:30:15.979Z,57.4
2022-10-25T10:35:18.775Z,57.4
2022-10-25T10:40:18.730Z,57.4
2022-10-25T10:45:15.661Z,57.5
2022-10-25T10:50:18.781Z,57.5
2022-10-25T10:55:18.750Z,57.4
2022-10-25T11:00:15.785Z,57.4
2022-10-25T11:05:15.900Z,57.4
2022-10-25T11:10:18.796Z,57.3
2022-10-25T11:15:15.834Z,57.3
2022-10-25T11:20:18.793Z,57.3
2022-10-25T11:25:18.803Z,57.3
2022-10-25T11:30:18.787Z,57.3
2022-10-25T11:35:18.879Z,57.3
2022-10-25T11:40:18.745Z,57.3
2022-10-25T11:45:18.785Z,57.3
2022-10-25T11:50:18.792Z,57.3
2022-10-25T11:55:15.819Z,57.3
2022-10-25T12:00:18.860Z,57.4
2022-10-25T12:05:18.795Z,57.4
2022-10-25T12:10:19.039Z,57.4
2022-10-25T12:15:18.825Z,57.5
2022-10-25T12:20:18.799Z,57.5
2022-10-25T12:25:18.794Z,57.8
2022-10-25T12:30:18.862Z,57.8
2022-10-25T12:35:18.811Z,57.8
2022-10-25T12:40:15.928Z,57.9
2022-10-25T12:45:19.063Z,57.8
2022-10-25T12:50:15.818Z,57.9
2022-10-25T12:55:15.811Z,58.0
2022-10-25T13:00:21.983Z,58.1
2022-10-25T13:05:18.811Z,58.2
2022-10-25T13:10:18.925Z,58.4
2022-10-25T13:15:18.838Z,58.5
2022-10-25T13:20:24.417Z,58.6
2022-10-25T13:25:15.726Z,58.7
2022-10-25T13:30:24.294Z,58.8
2022-10-25T13:35:15.891Z,58.9
2022-10-25T13:40:15.880Z,59.1
2022-10-25T13:45:15.883Z,59.2
2022-10-25T13:50:18.892Z,59.4
2022-10-25T13:55:19.056Z,59.5
2022-10-25T14:00:18.843Z,59.5
2022-10-25T14:05:15.720Z,59.6
2022-10-25T14:10:25.272Z,59.7
2022-10-25T14:15:18.883Z,59.8
2022-10-25T14:20:18.824Z,59.9
2022-10-25T14:25:15.883Z,60.0
2022-10-25T14:30:22.699Z,60.0
2022-10-25T14:35:15.938Z,60.1
2022-10-25T14:40:15.876Z,60.2
2022-10-25T14:45:18.915Z,60.3
2022-10-25T14:50:18.880Z,60.3
2022-10-25T14:55:18.837Z,60.4
2022-10-25T15:00:19.082Z,60.3
2022-10-25T15:05:18.869Z,60.4
2022-10-25T15:10:18.892Z,60.4
2022-10-25T15:15:15.891Z,60.4
2022-10-25T15:20:15.878Z,60.3
2022-10-25T15:25:15.920Z,60.3
2022-10-25T15:30:18.957Z,60.3
2022-10-25T15:35:19.129Z,60.3
2022-10-25T15:40:18.923Z,60.3
2022-10-25T15:45:18.867Z,60.3
2022-10-25T15:50:18.907Z,60.4
2022-10-25T15:55:18.861Z,60.4
2022-10-25T16:00:20.246Z,60.4
2022-10-25T16:05:15.927Z,60.4
2022-10-25T16:10:16.138Z,60.4
2022-10-25T16:15:15.949Z,60.3
2022-10-25T16:20:15.950Z,60.4
2022-10-25T16:25:15.914Z,60.4
2022-10-25T16:30:15.921Z,60.3
2022-10-25T16:35:18.931Z,60.4
2022-10-25T16:40:19.157Z,60.6
2022-10-25T16:45:18.893Z,60.7
2022-10-25T16:50:18.884Z,60.7
2022-10-25T16:55:18.929Z,60.7
2022-10-25T17:00:18.902Z,60.9
2022-10-25T17:05:18.904Z,61.2
2022-10-25T17:10:15.953Z,61.1
2022-10-25T17:15:16.036Z,61.1
2022-10-25T17:20:19.111Z,61.1
2022-10-25T17:25:18.911Z,61.4
2022-10-25T17:30:18.960Z,61.6
2022-10-25T17:35:18.938Z,61.6
2022-10-25T17:40:18.931Z,61.7
2022-10-25T17:45:19.142Z,61.9
2022-10-25T17:50:18.946Z,61.7
2022-10-25T17:55:18.951Z,61.8
2022-10-25T18:00:18.909Z,61.8
2022-10-25T18:05:20.573Z,61.9
2022-10-25T18:10:18.977Z,61.9
2022-10-25T18:15:18.981Z,62.0
2022-10-25T18:20:19.161Z,62.1
2022-10-25T18:25:18.962Z,62.2
2022-10-25T18:30:18.930Z,62.2
2022-10-25T18:35:18.978Z,62.3
2022-10-25T18:40:16.030Z,62.3
2022-10-25T18:45:16.047Z,62.4
2022-10-25T18:50:15.977Z,62.5
2022-10-25T18:55:24.643Z,62.6
2022-10-25T19:00:19.006Z,62.5
2022-10-25T19:05:18.963Z,62.5
2022-10-25T19:10:18.957Z,62.4
2022-10-25T19:15:18.999Z,62.5
2022-10-25T19:20:19.028Z,62.6
2022-10-25T19:25:21.556Z,62.6
2022-10-25T19:30:16.209Z,62.6
2022-10-25T19:35:16.067Z,62.5
2022-10-25T19:40:19.015Z,62.5
2022-10-25T19:45:16.043Z,62.5
2022-10-25T19:50:19.004Z,62.4
2022-10-25T19:55:15.856Z,62.4
2022-10-25T20:00:19.216Z,62.4
2022-10-25T20:05:16.049Z,62.4
2022-10-25T20:10:16.032Z,62.3
2022-10-25T20:15:19.063Z,62.3
2022-10-25T20:20:16.073Z,62.3
2022-10-25T20:25:19.060Z,62.2
2022-10-25T20:30:18.990Z,62.2
2022-10-25T20:35:16.215Z,62.2
2022-10-25T20:40:19.017Z,62.2
2022-10-25T20:45:16.064Z,62.1
2022-10-25T20:50:16.042Z,62.1
2022-10-25T20:55:16.023Z,62.1
2022-10-25T21:00:20.599Z,62.1
2022-10-25T21:05:19.233Z,62.1
2022-10-25T21:10:19.026Z,62.1
2022-10-25T21:15:15.993Z,62.1
2022-10-25T21:20:19.043Z,62.1
2022-10-25T21:25:19.028Z,62.1
2022-10-25T21:30:16.055Z,62.1
2022-10-25T21:35:16.043Z,62.0
2022-10-25T21:40:16.184Z,62.0
2022-10-25T21:45:19.078Z,62.0
2022-10-25T21:50:19.038Z,62.0
2022-10-25T21:55:19.080Z,62.0
2022-10-25T22:00:19.032Z,61.9
2022-10-25T22:05:19.050Z,61.8
2022-10-25T22:10:19.294Z,61.8
2022-10-25T22:15:16.087Z,61.7
2022-10-25T22:20:16.097Z,61.6
2022-10-25T22:25:16.087Z,61.5
2022-10-25T22:30:16.087Z,61.5
2022-10-25T22:35:19.146Z,61.4
2022-10-25T22:40:19.034Z,61.7
2022-10-25T22:45:19.277Z,61.4
2022-10-25T22:50:19.055Z,61.4
2022-10-25T22:55:19.028Z,61.4
2022-10-25T23:00:16.102Z,61.4
2022-10-25T23:05:16.126Z,61.4
2022-10-25T23:10:16.064Z,61.4
2022-10-25T23:15:19.123Z,61.8
2022-10-25T23:20:19.385Z,61.8
2022-10-25T23:25:19.068Z,61.9
2022-10-25T23:30:19.096Z,61.9
2022-10-25T23:35:19.163Z,61.9
2022-10-25T23:40:16.136Z,62.0
2022-10-25T23:45:16.142Z,62.0
2022-10-25T23:50:16.092Z,62.0
2022-10-25T23:55:19.327Z,61.9
